Hlavní strana
METAR-TAF:

METAR-TAF

Letiště :

Brjansk, Rusko

zeměpisná šířka: 53-15N, zeměpisná délka: 034-19E, výška: 217 m

Aktuální stav počasí

Zpráva byla vytvořena před 21 minutami, v 15:00 UTC
Jihovýchodní vítr 10 kt
Teplota 9°C
Vlhkost vzduchu 100%
Tlak 998 hPa
Viditelnost 10 km a více
Zataženo ve výšce 500 ft
slabý déšť

METAR: UUBP 241500Z 14005MPS 9999 -RA OVC005 09/09 Q0998 R16/290150 NOSIG RMK QFE730/0974

Čas: 18:21 (15:21 UTC)

Předpověď počasí

Zpráva byla vytvořena před 1 hodinou a 34 minutami, v 13:47 UTC
Předpověď platná od 24 v 15 UTC do 24 v 24 UTC
Jihovýchodní vítr 14 kt s nárazy do 25 kt
Viditelnost 10 km a více
Oblačno až skoro zataženo ve výšce 800 ft
Oblačno až skoro zataženo ve výšce 1500 ft
Dočasný
od 24 v 15 UTC do 24 v 18 UTC
Viditelnost: 3000 m
Oblačno až skoro zataženo ve výšce 600 ft, Cumulonimbus.
slabé dešťové přeháňky

TAF: UUBP 241347Z 2415/2424 14007G13MPS 9999 BKN008 BKN015 TEMPO 2415/2418 3000 -SHRA BKN006CB

Stav a předpovědi počasí z více než 4 000 letišť (zprávy METAR a TAF).

Červené a žluté tečky na mapě představují dostupné meteorologické stanice.

Když kurzor umístíte na tečku, zobrazí se název stanice.

Pak kliknutím zobrazíte stav a předpověď počasí.

Chcete-li změnit mapu, kliknutím na zelené tlačítko se znaménkem +mapu přiblížíte, kliknutím na zelené tlačítko se znaménkem – mapu oddálíte a kliknutím na zelené šipky přejdete na sousední mapy.


METAR-TAF: